»·PEaware :: N731NE KONT-KPOC

N731NE :: KONT-KPOC

FLIGHT INFORMATION

Flight Status: Arrived
Operator: Privately registered:
United States
More flights under this callsign
Pilot: Larry K. (35036)
Aircraft: BEECH AIRCRAFT BONANZA
(BE36)
More flights by this aircraft type
Origin: KONT Ontario Intl
United States
Destination: KPOC Brackett
United States
More flights between these airports :: More routes between these airports
Route: V363 POM
File this flight plan on PilotEdge
Remarks: alphabet 15
Altitude:
(Current/Filed)
4,000ft
Speed:
(Current/Filed)
150kts
Departed: 10-Jun-23 10:08 AM
Arrived: 10-Jun-23 10:28 AM
Distance/Time
Traveled:
9nm/0:20
Distance/Time
To Go:
Arrived

Flight Plot

Page will automatically refresh every two minutes.

Flight plan parsing failed; only flown route is shown


Map Options




Map Legend


Flown Route
Filed Route
Departure Airport
Arrival Airport
Navaid (VOR, NDB)
Fix

Horizontal Profiles

Position Reports

Time Latitude Longitude Heading Altitude Ground
Speed
10-Jun-23 09:35 34.052484 -117.603781 135 929ft 0kts
10-Jun-23 09:36 34.052486 -117.603781 135 929ft 0kts
10-Jun-23 09:37 34.052487 -117.603781 135 929ft 0kts
10-Jun-23 09:38 34.052488 -117.603781 135 929ft 0kts
10-Jun-23 09:39 34.052490 -117.603781 135 929ft 0kts
10-Jun-23 09:40 34.052491 -117.603781 135 929ft 0kts
10-Jun-23 09:41 34.052492 -117.603781 135 929ft 0kts
10-Jun-23 09:42 34.052494 -117.603781 135 929ft 0kts
10-Jun-23 09:43 34.052495 -117.603781 135 929ft 0kts
10-Jun-23 09:44 34.052497 -117.603781 135 929ft 0kts
10-Jun-23 09:45 34.052498 -117.603781 135 929ft 0kts
10-Jun-23 09:45 34.052499 -117.603781 135 929ft 0kts
10-Jun-23 09:47 34.052501 -117.603781 135 929ft 0kts
10-Jun-23 09:48 34.052502 -117.603781 135 929ft 0kts
10-Jun-23 09:49 34.052504 -117.603781 135 929ft 0kts
10-Jun-23 09:50 34.052505 -117.603781 135 929ft 0kts
10-Jun-23 09:50 34.052506 -117.603781 135 929ft 0kts
10-Jun-23 09:51 34.052508 -117.603781 135 929ft 0kts
10-Jun-23 09:52 34.052509 -117.603781 135 929ft 0kts
10-Jun-23 09:54 34.052511 -117.603781 135 929ft 0kts
10-Jun-23 09:55 34.052512 -117.603781 135 929ft 0kts
10-Jun-23 09:55 34.052513 -117.603781 135 929ft 0kts
10-Jun-23 09:56 34.052386 -117.603425 90 931ft 7kts
10-Jun-23 09:57 34.053239 -117.602715 21 930ft 0kts
10-Jun-23 09:58 34.053239 -117.602715 21 930ft 0kts
10-Jun-23 10:00 34.053887 -117.599542 89 928ft 15kts
10-Jun-23 10:00 34.053882 -117.594923 90 928ft 19kts
10-Jun-23 10:01 34.053883 -117.588922 90 928ft 20kts
10-Jun-23 10:02 34.053875 -117.583467 90 928ft 2kts
10-Jun-23 10:03 34.054040 -117.582875 30 930ft 0kts
10-Jun-23 10:04 34.054040 -117.582875 30 930ft 0kts
10-Jun-23 10:05 34.054040 -117.582875 30 928ft 0kts
10-Jun-23 10:06 34.054963 -117.583350 270 929ft 2kts
10-Jun-23 10:07 34.054745 -117.608414 270 1276ft 100kts
10-Jun-23 10:08 34.052948 -117.641361 267 2076ft 104kts
10-Jun-23 10:09 34.051022 -117.679399 267 2947ft 119kts
10-Jun-23 10:10 34.049110 -117.722464 266 3770ft 136kts
10-Jun-23 10:11 34.019079 -117.716371 127 4003ft 170kts
10-Jun-23 10:12 33.990986 -117.668642 124 4004ft 172kts
10-Jun-23 10:13 33.978187 -117.615796 94 4003ft 166kts
10-Jun-23 10:14 33.975104 -117.560075 93 4005ft 166kts
10-Jun-23 10:15 33.972231 -117.504369 93 3999ft 167kts
10-Jun-23 10:16 33.978836 -117.452349 24 3999ft 166kts
10-Jun-23 10:17 34.024952 -117.451021 356 4000ft 167kts
10-Jun-23 10:18 34.069279 -117.456557 319 3990ft 147kts
10-Jun-23 10:19 34.077788 -117.501370 275 3998ft 136kts
10-Jun-23 10:20 34.080629 -117.546565 271 3686ft 140kts
10-Jun-23 10:21 34.082390 -117.593550 272 3226ft 129kts
10-Jun-23 10:22 34.084406 -117.632294 272 3196ft 102kts
10-Jun-23 10:23 34.085910 -117.666225 272 3210ft 106kts
10-Jun-23 10:24 34.087558 -117.701689 272 2595ft 94kts
10-Jun-23 10:25 34.089040 -117.732800 273 1970ft 95kts
10-Jun-23 10:26 34.090592 -117.766140 271 1268ft 98kts
10-Jun-23 10:27 34.091142 -117.786831 184 980ft 5kts
10-Jun-23 10:28 34.091083 -117.786834 184 980ft 1kts
10-Jun-23 10:29 34.090253 -117.783617 165 995ft 8kts
10-Jun-23 10:30 34.090200 -117.783480 38 994ft 0kts
10-Jun-23 10:31 34.090200 -117.783480 38 994ft 0kts
10-Jun-23 10:32 34.090200 -117.783480 38 994ft 0kts
10-Jun-23 10:33 34.090200 -117.783480 38 994ft 0kts
10-Jun-23 10:34 34.090200 -117.783480 38 994ft 0kts
10-Jun-23 10:35 34.090200 -117.783480 38 994ft 0kts
10-Jun-23 10:36 34.090200 -117.783480 38 994ft 0kts
10-Jun-23 10:37 34.090200 -117.783480 38 994ft 0kts
10-Jun-23 10:38 34.090200 -117.783480 38 994ft 0kts
10-Jun-23 10:39 34.090200 -117.783480 38 994ft 0kts
10-Jun-23 10:40 34.090200 -117.783480 38 990ft 0kts
10-Jun-23 10:41 34.090200 -117.783480 38 990ft 0kts

Navigation Log

Ident Type
Flight plan parsing failed, navigation log unavailable